sensor_id;sensor_type;location;lat;lon;timestamp;P1;durP1;ratioP1;P2;durP2;ratioP2
36009;SDS011;22076;52.182;5.404;2023-03-01T00:00:13;15.23;;;8.68;;
36009;SDS011;22076;52.182;5.404;2023-03-01T00:02:40;13.30;;;8.63;;
36009;SDS011;22076;52.182;5.404;2023-03-01T00:05:07;15.57;;;8.70;;
36009;SDS011;22076;52.182;5.404;2023-03-01T00:07:34;17.15;;;9.38;;
36009;SDS011;22076;52.182;5.404;2023-03-01T00:10:01;14.65;;;8.75;;
36009;SDS011;22076;52.182;5.404;2023-03-01T00:12:27;14.40;;;9.15;;
36009;SDS011;22076;52.182;5.404;2023-03-01T00:14:55;14.45;;;8.98;;
36009;SDS011;22076;52.182;5.404;2023-03-01T00:17:22;12.70;;;8.73;;
36009;SDS011;22076;52.182;5.404;2023-03-01T00:19:49;15.93;;;10.02;;
36009;SDS011;22076;52.182;5.404;2023-03-01T00:22:15;16.10;;;9.27;;
36009;SDS011;22076;52.182;5.404;2023-03-01T00:24:42;15.77;;;9.88;;
36009;SDS011;22076;52.182;5.404;2023-03-01T00:27:08;14.43;;;9.45;;
36009;SDS011;22076;52.182;5.404;2023-03-01T00:29:35;15.50;;;8.82;;
36009;SDS011;22076;52.182;5.404;2023-03-01T00:32:03;14.82;;;8.98;;
36009;SDS011;22076;52.182;5.404;2023-03-01T00:34:30;21.27;;;10.48;;
36009;SDS011;22076;52.182;5.404;2023-03-01T00:36:56;13.82;;;8.98;;
36009;SDS011;22076;52.182;5.404;2023-03-01T00:39:29;15.45;;;9.25;;
36009;SDS011;22076;52.182;5.404;2023-03-01T00:41:56;12.02;;;8.95;;
36009;SDS011;22076;52.182;5.404;2023-03-01T00:44:23;15.57;;;9.13;;
36009;SDS011;22076;52.182;5.404;2023-03-01T00:46:49;17.05;;;8.95;;
36009;SDS011;22076;52.182;5.404;2023-03-01T00:49:17;15.35;;;9.38;;
36009;SDS011;22076;52.182;5.404;2023-03-01T00:51:44;15.73;;;9.52;;
36009;SDS011;22076;52.182;5.404;2023-03-01T00:54:10;15.52;;;10.02;;
36009;SDS011;22076;52.182;5.404;2023-03-01T00:56:37;14.25;;;9.25;;
36009;SDS011;22076;52.182;5.404;2023-03-01T00:59:04;17.42;;;10.27;;
36009;SDS011;22076;52.182;5.404;2023-03-01T01:01:31;17.63;;;11.32;;
36009;SDS011;22076;52.182;5.404;2023-03-01T01:03:58;15.38;;;10.38;;
36009;SDS011;22076;52.182;5.404;2023-03-01T01:06:28;16.50;;;10.63;;
36009;SDS011;22076;52.182;5.404;2023-03-01T01:08:55;20.38;;;10.50;;
36009;SDS011;22076;52.182;5.404;2023-03-01T01:11:23;17.13;;;10.75;;
36009;SDS011;22076;52.182;5.404;2023-03-01T01:13:50;16.20;;;10.38;;
36009;SDS011;22076;52.182;5.404;2023-03-01T01:16:18;13.80;;;9.68;;
36009;SDS011;22076;52.182;5.404;2023-03-01T01:18:45;15.15;;;9.70;;
36009;SDS011;22076;52.182;5.404;2023-03-01T01:21:13;22.23;;;13.30;;
36009;SDS011;22076;52.182;5.404;2023-03-01T01:23:43;17.38;;;10.60;;
36009;SDS011;22076;52.182;5.404;2023-03-01T01:26:11;16.42;;;10.98;;
36009;SDS011;22076;52.182;5.404;2023-03-01T01:28:40;15.23;;;9.85;;
36009;SDS011;22076;52.182;5.404;2023-03-01T01:31:07;23.25;;;12.90;;
36009;SDS011;22076;52.182;5.404;2023-03-01T01:33:34;18.17;;;10.75;;
36009;SDS011;22076;52.182;5.404;2023-03-01T01:36:00;13.95;;;10.38;;
36009;SDS011;22076;52.182;5.404;2023-03-01T01:38:27;18.80;;;10.68;;
36009;SDS011;22076;52.182;5.404;2023-03-01T01:40:55;15.35;;;10.32;;
36009;SDS011;22076;52.182;5.404;2023-03-01T01:43:23;19.58;;;11.48;;
36009;SDS011;22076;52.182;5.404;2023-03-01T01:45:51;18.00;;;11.38;;
36009;SDS011;22076;52.182;5.404;2023-03-01T01:48:19;20.98;;;11.95;;
36009;SDS011;22076;52.182;5.404;2023-03-01T01:50:49;20.60;;;11.88;;
36009;SDS011;22076;52.182;5.404;2023-03-01T01:53:19;17.80;;;11.93;;
36009;SDS011;22076;52.182;5.404;2023-03-01T01:55:47;17.70;;;12.82;;
36009;SDS011;22076;52.182;5.404;2023-03-01T01:58:18;18.63;;;11.02;;
36009;SDS011;22076;52.182;5.404;2023-03-01T02:00:45;18.67;;;12.25;;
36009;SDS011;22076;52.182;5.404;2023-03-01T02:03:14;17.13;;;11.50;;
36009;SDS011;22076;52.182;5.404;2023-03-01T02:05:45;19.23;;;12.13;;
36009;SDS011;22076;52.182;5.404;2023-03-01T02:08:14;17.88;;;11.50;;
36009;SDS011;22076;52.182;5.404;2023-03-01T02:10:42;21.70;;;12.50;;
36009;SDS011;22076;52.182;5.404;2023-03-01T02:13:09;18.35;;;11.68;;
36009;SDS011;22076;52.182;5.404;2023-03-01T02:15:38;19.50;;;12.30;;
36009;SDS011;22076;52.182;5.404;2023-03-01T02:18:06;22.10;;;12.45;;
36009;SDS011;22076;52.182;5.404;2023-03-01T02:20:35;31.98;;;13.43;;
36009;SDS011;22076;52.182;5.404;2023-03-01T02:23:07;19.77;;;12.02;;
36009;SDS011;22076;52.182;5.404;2023-03-01T02:25:36;18.98;;;10.88;;
36009;SDS011;22076;52.182;5.404;2023-03-01T02:28:08;21.33;;;13.30;;
36009;SDS011;22076;52.182;5.404;2023-03-01T02:30:47;20.52;;;12.02;;
36009;SDS011;22076;52.182;5.404;2023-03-01T02:33:29;19.90;;;14.07;;
36009;SDS011;22076;52.182;5.404;2023-03-01T02:35:57;21.52;;;12.40;;
36009;SDS011;22076;52.182;5.404;2023-03-01T02:38:25;28.10;;;13.65;;
36009;SDS011;22076;52.182;5.404;2023-03-01T02:40:51;29.33;;;16.23;;
36009;SDS011;22076;52.182;5.404;2023-03-01T02:43:20;25.08;;;14.75;;
36009;SDS011;22076;52.182;5.404;2023-03-01T02:45:50;20.38;;;11.52;;
36009;SDS011;22076;52.182;5.404;2023-03-01T02:48:17;22.17;;;12.32;;
36009;SDS011;22076;52.182;5.404;2023-03-01T02:50:47;22.75;;;13.38;;
36009;SDS011;22076;52.182;5.404;2023-03-01T02:53:21;17.55;;;12.43;;
36009;SDS011;22076;52.182;5.404;2023-03-01T02:55:49;19.60;;;12.50;;
36009;SDS011;22076;52.182;5.404;2023-03-01T02:58:16;22.38;;;14.63;;
36009;SDS011;22076;52.182;5.404;2023-03-01T03:00:44;27.13;;;13.10;;
36009;SDS011;22076;52.182;5.404;2023-03-01T03:03:12;19.42;;;12.48;;
36009;SDS011;22076;52.182;5.404;2023-03-01T03:05:39;19.77;;;12.30;;
36009;SDS011;22076;52.182;5.404;2023-03-01T03:08:07;21.98;;;13.80;;
36009;SDS011;22076;52.182;5.404;2023-03-01T03:10:35;22.98;;;12.98;;
36009;SDS011;22076;52.182;5.404;2023-03-01T03:13:05;17.80;;;11.25;;
36009;SDS011;22076;52.182;5.404;2023-03-01T03:15:33;19.02;;;12.98;;
36009;SDS011;22076;52.182;5.404;2023-03-01T03:18:03;18.08;;;11.75;;
36009;SDS011;22076;52.182;5.404;2023-03-01T03:20:31;18.65;;;11.77;;
36009;SDS011;22076;52.182;5.404;2023-03-01T03:22:58;24.50;;;14.02;;
36009;SDS011;22076;52.182;5.404;2023-03-01T03:25:25;19.60;;;11.95;;
36009;SDS011;22076;52.182;5.404;2023-03-01T03:27:52;17.10;;;11.32;;
36009;SDS011;22076;52.182;5.404;2023-03-01T03:30:22;24.65;;;14.55;;
36009;SDS011;22076;52.182;5.404;2023-03-01T03:32:49;22.90;;;13.38;;
36009;SDS011;22076;52.182;5.404;2023-03-01T03:35:20;20.63;;;11.88;;
36009;SDS011;22076;52.182;5.404;2023-03-01T03:37:47;19.25;;;11.68;;
36009;SDS011;22076;52.182;5.404;2023-03-01T03:40:32;20.42;;;11.82;;
36009;SDS011;22076;52.182;5.404;2023-03-01T03:43:00;21.05;;;11.68;;
36009;SDS011;22076;52.182;5.404;2023-03-01T03:45:26;20.10;;;10.50;;
36009;SDS011;22076;52.182;5.404;2023-03-01T03:47:53;17.08;;;12.38;;
36009;SDS011;22076;52.182;5.404;2023-03-01T03:50:21;20.48;;;12.85;;
36009;SDS011;22076;52.182;5.404;2023-03-01T03:52:47;18.38;;;12.30;;
36009;SDS011;22076;52.182;5.404;2023-03-01T03:55:14;18.98;;;12.88;;
36009;SDS011;22076;52.182;5.404;2023-03-01T03:57:44;21.70;;;12.85;;
36009;SDS011;22076;52.182;5.404;2023-03-01T04:00:14;23.00;;;12.88;;
36009;SDS011;22076;52.182;5.404;2023-03-01T04:02:42;22.52;;;13.02;;
36009;SDS011;22076;52.182;5.404;2023-03-01T04:05:10;20.63;;;12.82;;
36009;SDS011;22076;52.182;5.404;2023-03-01T04:07:39;21.88;;;11.10;;
36009;SDS011;22076;52.182;5.404;2023-03-01T04:10:08;20.83;;;12.50;;
36009;SDS011;22076;52.182;5.404;2023-03-01T04:12:36;16.85;;;10.95;;
36009;SDS011;22076;52.182;5.404;2023-03-01T04:15:03;19.48;;;12.38;;
36009;SDS011;22076;52.182;5.404;2023-03-01T04:17:38;19.52;;;12.32;;
36009;SDS011;22076;52.182;5.404;2023-03-01T04:20:05;20.70;;;11.40;;
36009;SDS011;22076;52.182;5.404;2023-03-01T04:22:36;18.38;;;12.05;;
36009;SDS011;22076;52.182;5.404;2023-03-01T04:25:04;22.75;;;12.70;;
36009;SDS011;22076;52.182;5.404;2023-03-01T04:27:32;20.60;;;11.57;;
36009;SDS011;22076;52.182;5.404;2023-03-01T04:29:59;20.58;;;12.00;;
36009;SDS011;22076;52.182;5.404;2023-03-01T04:32:25;21.95;;;12.98;;
36009;SDS011;22076;52.182;5.404;2023-03-01T04:34:52;18.17;;;11.30;;
36009;SDS011;22076;52.182;5.404;2023-03-01T04:37:18;20.20;;;12.10;;
36009;SDS011;22076;52.182;5.404;2023-03-01T04:39:45;18.60;;;11.55;;
36009;SDS011;22076;52.182;5.404;2023-03-01T04:42:13;20.48;;;10.93;;
36009;SDS011;22076;52.182;5.404;2023-03-01T04:44:41;18.67;;;11.48;;
36009;SDS011;22076;52.182;5.404;2023-03-01T04:47:08;20.52;;;12.65;;
36009;SDS011;22076;52.182;5.404;2023-03-01T04:49:34;17.45;;;10.77;;
36009;SDS011;22076;52.182;5.404;2023-03-01T04:52:01;17.58;;;11.32;;
36009;SDS011;22076;52.182;5.404;2023-03-01T04:54:28;17.88;;;11.60;;
36009;SDS011;22076;52.182;5.404;2023-03-01T04:56:54;20.20;;;12.40;;
36009;SDS011;22076;52.182;5.404;2023-03-01T04:59:22;20.15;;;12.48;;
36009;SDS011;22076;52.182;5.404;2023-03-01T05:01:49;17.55;;;10.55;;
36009;SDS011;22076;52.182;5.404;2023-03-01T05:04:15;17.38;;;12.20;;
36009;SDS011;22076;52.182;5.404;2023-03-01T05:06:42;19.38;;;11.55;;
36009;SDS011;22076;52.182;5.404;2023-03-01T05:09:09;19.58;;;11.55;;
36009;SDS011;22076;52.182;5.404;2023-03-01T05:11:36;19.00;;;11.82;;
36009;SDS011;22076;52.182;5.404;2023-03-01T05:14:03;20.58;;;11.80;;
36009;SDS011;22076;52.182;5.404;2023-03-01T05:16:31;17.67;;;11.48;;
36009;SDS011;22076;52.182;5.404;2023-03-01T05:18:58;23.13;;;12.27;;
36009;SDS011;22076;52.182;5.404;2023-03-01T05:21:25;20.17;;;12.60;;
36009;SDS011;22076;52.182;5.404;2023-03-01T05:23:52;19.95;;;12.05;;
36009;SDS011;22076;52.182;5.404;2023-03-01T05:26:19;19.58;;;12.65;;
36009;SDS011;22076;52.182;5.404;2023-03-01T05:28:47;19.73;;;11.55;;
36009;SDS011;22076;52.182;5.404;2023-03-01T05:31:13;19.45;;;12.40;;
36009;SDS011;22076;52.182;5.404;2023-03-01T05:33:42;21.10;;;12.93;;
36009;SDS011;22076;52.182;5.404;2023-03-01T05:36:09;20.55;;;12.23;;
36009;SDS011;22076;52.182;5.404;2023-03-01T05:38:36;21.98;;;13.10;;
36009;SDS011;22076;52.182;5.404;2023-03-01T05:41:02;20.52;;;12.95;;
36009;SDS011;22076;52.182;5.404;2023-03-01T05:43:30;22.38;;;11.90;;
36009;SDS011;22076;52.182;5.404;2023-03-01T05:45:58;23.42;;;12.10;;
36009;SDS011;22076;52.182;5.404;2023-03-01T05:48:25;17.15;;;11.57;;
36009;SDS011;22076;52.182;5.404;2023-03-01T05:50:53;22.63;;;12.88;;
36009;SDS011;22076;52.182;5.404;2023-03-01T05:53:20;23.35;;;13.60;;
36009;SDS011;22076;52.182;5.404;2023-03-01T05:55:47;26.45;;;14.60;;
36009;SDS011;22076;52.182;5.404;2023-03-01T05:58:17;18.70;;;12.18;;
36009;SDS011;22076;52.182;5.404;2023-03-01T06:00:45;25.05;;;12.95;;
36009;SDS011;22076;52.182;5.404;2023-03-01T06:03:13;22.52;;;12.65;;
36009;SDS011;22076;52.182;5.404;2023-03-01T06:05:41;22.73;;;12.57;;
36009;SDS011;22076;52.182;5.404;2023-03-01T06:08:10;20.35;;;11.77;;
36009;SDS011;22076;52.182;5.404;2023-03-01T06:10:37;21.88;;;12.85;;
36009;SDS011;22076;52.182;5.404;2023-03-01T06:13:04;23.00;;;13.30;;
36009;SDS011;22076;52.182;5.404;2023-03-01T06:15:30;25.67;;;14.35;;
36009;SDS011;22076;52.182;5.404;2023-03-01T06:17:57;22.35;;;12.68;;
36009;SDS011;22076;52.182;5.404;2023-03-01T06:20:25;22.23;;;13.15;;
36009;SDS011;22076;52.182;5.404;2023-03-01T06:22:53;22.65;;;13.95;;
36009;SDS011;22076;52.182;5.404;2023-03-01T06:25:22;26.30;;;12.95;;
36009;SDS011;22076;52.182;5.404;2023-03-01T06:27:50;24.27;;;14.45;;
36009;SDS011;22076;52.182;5.404;2023-03-01T06:30:18;23.15;;;13.75;;
36009;SDS011;22076;52.182;5.404;2023-03-01T06:32:45;23.38;;;14.02;;
36009;SDS011;22076;52.182;5.404;2023-03-01T06:35:12;24.30;;;13.38;;
36009;SDS011;22076;52.182;5.404;2023-03-01T06:37:42;33.40;;;17.42;;
36009;SDS011;22076;52.182;5.404;2023-03-01T06:40:10;29.80;;;15.65;;
36009;SDS011;22076;52.182;5.404;2023-03-01T06:42:40;31.50;;;16.52;;
36009;SDS011;22076;52.182;5.404;2023-03-01T06:45:09;34.35;;;18.40;;
36009;SDS011;22076;52.182;5.404;2023-03-01T06:47:36;24.83;;;14.85;;
36009;SDS011;22076;52.182;5.404;2023-03-01T06:50:03;32.20;;;16.08;;
36009;SDS011;22076;52.182;5.404;2023-03-01T06:52:30;28.30;;;14.23;;
36009;SDS011;22076;52.182;5.404;2023-03-01T06:54:58;33.50;;;18.50;;
36009;SDS011;22076;52.182;5.404;2023-03-01T06:57:25;23.88;;;14.80;;
36009;SDS011;22076;52.182;5.404;2023-03-01T06:59:55;31.75;;;17.60;;
36009;SDS011;22076;52.182;5.404;2023-03-01T07:02:22;23.02;;;14.50;;
36009;SDS011;22076;52.182;5.404;2023-03-01T07:04:50;25.17;;;14.55;;
36009;SDS011;22076;52.182;5.404;2023-03-01T07:07:17;23.83;;;13.00;;
36009;SDS011;22076;52.182;5.404;2023-03-01T07:09:44;27.10;;;16.25;;
36009;SDS011;22076;52.182;5.404;2023-03-01T07:12:10;28.13;;;15.35;;
36009;SDS011;22076;52.182;5.404;2023-03-01T07:14:37;21.88;;;13.60;;
36009;SDS011;22076;52.182;5.404;2023-03-01T07:17:05;26.55;;;15.18;;
36009;SDS011;22076;52.182;5.404;2023-03-01T07:19:32;33.55;;;17.45;;
36009;SDS011;22076;52.182;5.404;2023-03-01T07:21:59;29.27;;;15.70;;
36009;SDS011;22076;52.182;5.404;2023-03-01T07:24:26;30.42;;;18.05;;
36009;SDS011;22076;52.182;5.404;2023-03-01T07:26:53;31.45;;;16.35;;
36009;SDS011;22076;52.182;5.404;2023-03-01T07:29:19;30.40;;;17.15;;
36009;SDS011;22076;52.182;5.404;2023-03-01T07:31:46;35.17;;;18.90;;
36009;SDS011;22076;52.182;5.404;2023-03-01T07:34:14;36.17;;;17.23;;
36009;SDS011;22076;52.182;5.404;2023-03-01T07:36:41;37.20;;;18.67;;
36009;SDS011;22076;52.182;5.404;2023-03-01T07:39:08;34.33;;;16.42;;
36009;SDS011;22076;52.182;5.404;2023-03-01T07:41:35;36.88;;;18.13;;
36009;SDS011;22076;52.182;5.404;2023-03-01T07:44:02;39.58;;;19.02;;
36009;SDS011;22076;52.182;5.404;2023-03-01T07:46:29;46.22;;;22.55;;
36009;SDS011;22076;52.182;5.404;2023-03-01T07:48:55;42.97;;;20.38;;
36009;SDS011;22076;52.182;5.404;2023-03-01T07:51:26;44.22;;;23.23;;
36009;SDS011;22076;52.182;5.404;2023-03-01T07:53:53;51.03;;;23.95;;
36009;SDS011;22076;52.182;5.404;2023-03-01T07:56:20;34.17;;;18.45;;
36009;SDS011;22076;52.182;5.404;2023-03-01T07:58:47;26.42;;;16.35;;
36009;SDS011;22076;52.182;5.404;2023-03-01T08:01:15;30.90;;;15.60;;
36009;SDS011;22076;52.182;5.404;2023-03-01T08:03:43;38.10;;;18.73;;
36009;SDS011;22076;52.182;5.404;2023-03-01T08:06:10;22.77;;;12.80;;
36009;SDS011;22076;52.182;5.404;2023-03-01T08:08:38;39.97;;;21.42;;
36009;SDS011;22076;52.182;5.404;2023-03-01T08:11:06;23.90;;;12.40;;
36009;SDS011;22076;52.182;5.404;2023-03-01T08:13:35;30.65;;;16.45;;
36009;SDS011;22076;52.182;5.404;2023-03-01T08:16:03;27.23;;;14.60;;
36009;SDS011;22076;52.182;5.404;2023-03-01T08:18:32;34.40;;;18.08;;
36009;SDS011;22076;52.182;5.404;2023-03-01T08:21:01;25.45;;;13.05;;
36009;SDS011;22076;52.182;5.404;2023-03-01T08:23:28;26.38;;;13.18;;
36009;SDS011;22076;52.182;5.404;2023-03-01T08:26:08;40.45;;;18.35;;
36009;SDS011;22076;52.182;5.404;2023-03-01T08:28:37;30.10;;;15.57;;
36009;SDS011;22076;52.182;5.404;2023-03-01T08:31:12;34.20;;;15.55;;
36009;SDS011;22076;52.182;5.404;2023-03-01T08:33:39;38.75;;;19.20;;
36009;SDS011;22076;52.182;5.404;2023-03-01T08:36:07;21.88;;;12.05;;
36009;SDS011;22076;52.182;5.404;2023-03-01T08:38:35;20.30;;;11.30;;
36009;SDS011;22076;52.182;5.404;2023-03-01T08:41:02;37.22;;;18.33;;
36009;SDS011;22076;52.182;5.404;2023-03-01T08:43:30;27.48;;;15.40;;
36009;SDS011;22076;52.182;5.404;2023-03-01T08:45:57;21.88;;;11.95;;
36009;SDS011;22076;52.182;5.404;2023-03-01T08:48:24;20.75;;;11.40;;
36009;SDS011;22076;52.182;5.404;2023-03-01T08:50:53;15.90;;;9.88;;
36009;SDS011;22076;52.182;5.404;2023-03-01T08:53:20;21.70;;;12.55;;
36009;SDS011;22076;52.182;5.404;2023-03-01T08:55:47;20.63;;;10.43;;
36009;SDS011;22076;52.182;5.404;2023-03-01T08:58:19;28.58;;;14.15;;
36009;SDS011;22076;52.182;5.404;2023-03-01T09:00:47;20.48;;;11.15;;
36009;SDS011;22076;52.182;5.404;2023-03-01T09:05:52;24.23;;;14.05;;
36009;SDS011;22076;52.182;5.404;2023-03-01T09:08:18;21.30;;;11.45;;
36009;SDS011;22076;52.182;5.404;2023-03-01T09:10:45;21.60;;;10.45;;
36009;SDS011;22076;52.182;5.404;2023-03-01T09:16:18;13.40;;;7.85;;
36009;SDS011;22076;52.182;5.404;2023-03-01T09:18:48;17.40;;;9.93;;
36009;SDS011;22076;52.182;5.404;2023-03-01T09:21:15;22.00;;;10.50;;
36009;SDS011;22076;52.182;5.404;2023-03-01T09:23:43;15.82;;;8.10;;
36009;SDS011;22076;52.182;5.404;2023-03-01T09:26:11;15.85;;;8.15;;
36009;SDS011;22076;52.182;5.404;2023-03-01T09:28:45;16.42;;;9.80;;
36009;SDS011;22076;52.182;5.404;2023-03-01T09:31:12;17.70;;;9.10;;
36009;SDS011;22076;52.182;5.404;2023-03-01T09:33:41;14.68;;;9.10;;
36009;SDS011;22076;52.182;5.404;2023-03-01T09:36:10;20.38;;;9.90;;
36009;SDS011;22076;52.182;5.404;2023-03-01T09:49:31;12.85;;;6.75;;
36009;SDS011;22076;52.182;5.404;2023-03-01T09:52:01;12.82;;;6.90;;
36009;SDS011;22076;52.182;5.404;2023-03-01T09:54:37;14.55;;;7.68;;
36009;SDS011;22076;52.182;5.404;2023-03-01T09:57:06;13.43;;;7.80;;
36009;SDS011;22076;52.182;5.404;2023-03-01T10:02:24;13.48;;;7.75;;
36009;SDS011;22076;52.182;5.404;2023-03-01T10:04:59;14.75;;;7.03;;
36009;SDS011;22076;52.182;5.404;2023-03-01T10:07:36;11.75;;;6.75;;
36009;SDS011;22076;52.182;5.404;2023-03-01T10:10:21;15.05;;;7.78;;
36009;SDS011;22076;52.182;5.404;2023-03-01T10:12:52;9.50;;;5.07;;
36009;SDS011;22076;52.182;5.404;2023-03-01T10:15:19;8.57;;;4.65;;
36009;SDS011;22076;52.182;5.404;2023-03-01T10:17:50;7.93;;;4.32;;
36009;SDS011;22076;52.182;5.404;2023-03-01T10:20:21;9.93;;;5.70;;
36009;SDS011;22076;52.182;5.404;2023-03-01T10:22:50;11.38;;;5.40;;
36009;SDS011;22076;52.182;5.404;2023-03-01T10:25:36;11.55;;;5.80;;
36009;SDS011;22076;52.182;5.404;2023-03-01T10:28:25;10.43;;;5.50;;
36009;SDS011;22076;52.182;5.404;2023-03-01T10:30:57;9.27;;;6.28;;
36009;SDS011;22076;52.182;5.404;2023-03-01T10:33:25;15.30;;;6.88;;
36009;SDS011;22076;52.182;5.404;2023-03-01T10:35:54;11.23;;;6.63;;
36009;SDS011;22076;52.182;5.404;2023-03-01T10:38:30;8.18;;;5.45;;
36009;SDS011;22076;52.182;5.404;2023-03-01T10:41:00;25.05;;;11.80;;
36009;SDS011;22076;52.182;5.404;2023-03-01T10:43:43;23.23;;;10.02;;
36009;SDS011;22076;52.182;5.404;2023-03-01T10:46:26;41.17;;;16.67;;
36009;SDS011;22076;52.182;5.404;2023-03-01T10:49:05;17.58;;;8.27;;
36009;SDS011;22076;52.182;5.404;2023-03-01T10:54:20;8.57;;;4.72;;
36009;SDS011;22076;52.182;5.404;2023-03-01T10:56:49;8.07;;;4.55;;
36009;SDS011;22076;52.182;5.404;2023-03-01T10:59:22;9.73;;;4.30;;
36009;SDS011;22076;52.182;5.404;2023-03-01T11:02:03;7.68;;;4.40;;
36009;SDS011;22076;52.182;5.404;2023-03-01T11:07:23;7.50;;;4.40;;
36009;SDS011;22076;52.182;5.404;2023-03-01T11:09:50;8.80;;;4.75;;
36009;SDS011;22076;52.182;5.404;2023-03-01T11:12:26;9.57;;;4.97;;
36009;SDS011;22076;52.182;5.404;2023-03-01T11:14:55;7.88;;;4.28;;
36009;SDS011;22076;52.182;5.404;2023-03-01T11:17:23;9.38;;;4.00;;
36009;SDS011;22076;52.182;5.404;2023-03-01T11:20:00;7.25;;;4.05;;
36009;SDS011;22076;52.182;5.404;2023-03-01T11:22:32;7.22;;;3.65;;
36009;SDS011;22076;52.182;5.404;2023-03-01T11:25:00;8.05;;;3.90;;
36009;SDS011;22076;52.182;5.404;2023-03-01T11:27:31;5.57;;;3.90;;
36009;SDS011;22076;52.182;5.404;2023-03-01T11:29:59;6.88;;;3.50;;
36009;SDS011;22076;52.182;5.404;2023-03-01T11:32:31;6.38;;;3.25;;
36009;SDS011;22076;52.182;5.404;2023-03-01T11:35:02;6.80;;;3.80;;
36009;SDS011;22076;52.182;5.404;2023-03-01T11:37:33;7.22;;;3.97;;
36009;SDS011;22076;52.182;5.404;2023-03-01T11:40:13;6.60;;;3.80;;
36009;SDS011;22076;52.182;5.404;2023-03-01T11:42:47;6.82;;;3.72;;
36009;SDS011;22076;52.182;5.404;2023-03-01T11:45:16;5.82;;;3.50;;
36009;SDS011;22076;52.182;5.404;2023-03-01T11:47:54;5.15;;;3.03;;
36009;SDS011;22076;52.182;5.404;2023-03-01T11:50:26;5.25;;;3.38;;
36009;SDS011;22076;52.182;5.404;2023-03-01T11:53:00;7.22;;;3.25;;
36009;SDS011;22076;52.182;5.404;2023-03-01T11:55:46;7.35;;;3.58;;
36009;SDS011;22076;52.182;5.404;2023-03-01T11:58:36;6.38;;;3.35;;
36009;SDS011;22076;52.182;5.404;2023-03-01T12:01:18;4.35;;;2.80;;
36009;SDS011;22076;52.182;5.404;2023-03-01T12:04:18;4.32;;;3.05;;
36009;SDS011;22076;52.182;5.404;2023-03-01T12:06:55;7.00;;;3.60;;
36009;SDS011;22076;52.182;5.404;2023-03-01T12:09:33;4.53;;;2.78;;
36009;SDS011;22076;52.182;5.404;2023-03-01T12:12:08;6.22;;;3.33;;
36009;SDS011;22076;52.182;5.404;2023-03-01T12:14:50;6.53;;;3.78;;
36009;SDS011;22076;52.182;5.404;2023-03-01T12:17:32;8.32;;;4.63;;
36009;SDS011;22076;52.182;5.404;2023-03-01T12:20:19;7.38;;;3.65;;
36009;SDS011;22076;52.182;5.404;2023-03-01T12:23:00;7.82;;;4.28;;
36009;SDS011;22076;52.182;5.404;2023-03-01T12:25:40;7.82;;;4.63;;
36009;SDS011;22076;52.182;5.404;2023-03-01T12:28:12;5.25;;;3.40;;
36009;SDS011;22076;52.182;5.404;2023-03-01T12:30:56;6.00;;;3.80;;
36009;SDS011;22076;52.182;5.404;2023-03-01T12:33:31;7.05;;;4.20;;
36009;SDS011;22076;52.182;5.404;2023-03-01T12:36:09;6.75;;;4.25;;
36009;SDS011;22076;52.182;5.404;2023-03-01T12:38:42;4.82;;;3.53;;
36009;SDS011;22076;52.182;5.404;2023-03-01T12:41:20;6.72;;;4.00;;
36009;SDS011;22076;52.182;5.404;2023-03-01T12:43:58;8.27;;;4.40;;
36009;SDS011;22076;52.182;5.404;2023-03-01T12:46:44;5.88;;;3.42;;
36009;SDS011;22076;52.182;5.404;2023-03-01T12:49:19;7.10;;;3.65;;
36009;SDS011;22076;52.182;5.404;2023-03-01T12:51:50;6.03;;;3.35;;
36009;SDS011;22076;52.182;5.404;2023-03-01T12:54:20;5.13;;;3.50;;
36009;SDS011;22076;52.182;5.404;2023-03-01T12:56:53;6.25;;;3.88;;
36009;SDS011;22076;52.182;5.404;2023-03-01T12:59:21;5.65;;;3.92;;
36009;SDS011;22076;52.182;5.404;2023-03-01T13:01:52;6.38;;;3.53;;
36009;SDS011;22076;52.182;5.404;2023-03-01T13:04:26;7.68;;;4.13;;
36009;SDS011;22076;52.182;5.404;2023-03-01T13:06:58;7.95;;;3.97;;
36009;SDS011;22076;52.182;5.404;2023-03-01T13:09:34;6.28;;;3.75;;
36009;SDS011;22076;52.182;5.404;2023-03-01T13:12:14;6.78;;;4.18;;
36009;SDS011;22076;52.182;5.404;2023-03-01T13:21:04;6.75;;;4.28;;
36009;SDS011;22076;52.182;5.404;2023-03-01T13:23:35;7.75;;;4.30;;
36009;SDS011;22076;52.182;5.404;2023-03-01T13:26:05;5.80;;;3.77;;
36009;SDS011;22076;52.182;5.404;2023-03-01T13:28:52;7.20;;;4.00;;
36009;SDS011;22076;52.182;5.404;2023-03-01T13:37:23;6.18;;;3.47;;
36009;SDS011;22076;52.182;5.404;2023-03-01T13:39:54;9.13;;;4.55;;
36009;SDS011;22076;52.182;5.404;2023-03-01T13:42:39;6.72;;;3.85;;
36009;SDS011;22076;52.182;5.404;2023-03-01T13:48:02;4.75;;;3.20;;
36009;SDS011;22076;52.182;5.404;2023-03-01T13:50:33;4.85;;;3.00;;
36009;SDS011;22076;52.182;5.404;2023-03-01T13:55:34;6.85;;;4.13;;
36009;SDS011;22076;52.182;5.404;2023-03-01T13:58:04;6.38;;;4.40;;
36009;SDS011;22076;52.182;5.404;2023-03-01T14:00:40;7.78;;;3.75;;
36009;SDS011;22076;52.182;5.404;2023-03-01T14:03:11;6.72;;;3.67;;
36009;SDS011;22076;52.182;5.404;2023-03-01T14:05:40;10.30;;;4.72;;
36009;SDS011;22076;52.182;5.404;2023-03-01T14:08:18;4.82;;;3.80;;
36009;SDS011;22076;52.182;5.404;2023-03-01T14:10:50;6.55;;;3.80;;
36009;SDS011;22076;52.182;5.404;2023-03-01T14:13:24;7.28;;;3.38;;
36009;SDS011;22076;52.182;5.404;2023-03-01T14:16:04;7.40;;;4.88;;
36009;SDS011;22076;52.182;5.404;2023-03-01T14:18:39;7.22;;;3.88;;
36009;SDS011;22076;52.182;5.404;2023-03-01T14:21:12;9.07;;;3.92;;
36009;SDS011;22076;52.182;5.404;2023-03-01T14:23:41;3.88;;;3.38;;
36009;SDS011;22076;52.182;5.404;2023-03-01T14:26:08;8.82;;;4.40;;
36009;SDS011;22076;52.182;5.404;2023-03-01T14:28:38;4.95;;;3.33;;
36009;SDS011;22076;52.182;5.404;2023-03-01T14:34:00;6.18;;;3.65;;
36009;SDS011;22076;52.182;5.404;2023-03-01T14:36:27;8.43;;;4.93;;
36009;SDS011;22076;52.182;5.404;2023-03-01T14:38:55;7.22;;;4.20;;
36009;SDS011;22076;52.182;5.404;2023-03-01T14:41:24;6.25;;;4.05;;
36009;SDS011;22076;52.182;5.404;2023-03-01T14:43:54;6.45;;;4.43;;
36009;SDS011;22076;52.182;5.404;2023-03-01T14:46:24;6.32;;;3.95;;
36009;SDS011;22076;52.182;5.404;2023-03-01T14:48:55;4.97;;;3.97;;
36009;SDS011;22076;52.182;5.404;2023-03-01T14:51:24;4.05;;;2.88;;
36009;SDS011;22076;52.182;5.404;2023-03-01T14:53:50;4.80;;;3.47;;
36009;SDS011;22076;52.182;5.404;2023-03-01T14:56:19;6.47;;;4.18;;
36009;SDS011;22076;52.182;5.404;2023-03-01T14:58:46;6.10;;;3.72;;
36009;SDS011;22076;52.182;5.404;2023-03-01T15:01:13;6.32;;;4.30;;
36009;SDS011;22076;52.182;5.404;2023-03-01T15:03:42;6.22;;;4.38;;
36009;SDS011;22076;52.182;5.404;2023-03-01T15:06:11;7.50;;;4.15;;
36009;SDS011;22076;52.182;5.404;2023-03-01T15:08:41;6.22;;;4.10;;
36009;SDS011;22076;52.182;5.404;2023-03-01T15:11:17;5.93;;;3.78;;
36009;SDS011;22076;52.182;5.404;2023-03-01T15:13:47;5.15;;;3.70;;
36009;SDS011;22076;52.182;5.404;2023-03-01T15:16:15;5.50;;;3.83;;
36009;SDS011;22076;52.182;5.404;2023-03-01T15:18:43;4.93;;;3.45;;
36009;SDS011;22076;52.182;5.404;2023-03-01T15:21:16;6.38;;;4.25;;
36009;SDS011;22076;52.182;5.404;2023-03-01T15:23:48;8.18;;;4.68;;
36009;SDS011;22076;52.182;5.404;2023-03-01T15:26:23;7.95;;;4.35;;
36009;SDS011;22076;52.182;5.404;2023-03-01T15:28:51;7.18;;;3.47;;
36009;SDS011;22076;52.182;5.404;2023-03-01T15:31:20;8.80;;;4.78;;